Startpagina
METAR-TAF:

METAR-TAF

Vliegvelden :

Luchthaven Lubango

Lubango, Angola

breedte: 14-55-30S, lengte: 13-34-30E, hoogte: 1761 m

Actueel weer

Dit bericht is 1 uur en het 6 minuten geleden gemaakt, om 10:00 UTC
Wind 6 kt uit het oostnoordoosten, variërend tussen het noordnoordoosten en het zuidoosten
Temperatuur 26°C
Vochtigheid 12%
Druk 1028 hPa
Zicht: 9000 m

METAR: FNUB 251000Z 07006KT 020V130 9000 NSC 26/M06 Q1028 RMK HZ

Tijdstip: 12:06 (11:06 UTC)

Verwachting

Dit bericht is 12 uur en het 6 minuten geleden gemaakt, om 23:00 UTC
Verwachting geldig van 25 om 00 UTC tot 25 om 12 UTC
Wind 3 kt uit variabele richting
Zicht 10 km of meer
geen wolken onder 1500 m en geen cumulonimbus

TAF: FNUB 242300Z 2500/2512 VRB03KT CAVOK

Waarnemingen en weersverwachtingen van meer dan 4000 vliegvelden (METAR en TAF).

De beschikbare stations zijn de gele en rode punten op de kaart.

Ga met uw muis naar het station om de naam te zien.

Klik dan om waarnemingen en weersverwachtingen te zien.

kaart wijzigen: klik op de groene knoppen met een zwart kruis om in te zoomen, op de groene knop met een streepje om uit te zoomen of op de groene pijlen voor aangrenzende kaarten.


METAR-TAF: